createdAt,value
2023-11-15T09:05:09.343Z,99.99
2023-11-15T09:06:10.464Z,99.99
2023-11-15T09:07:10.519Z,99.99
2023-11-15T09:08:10.750Z,99.99
2023-11-15T09:09:10.755Z,99.99
2023-11-15T09:10:10.784Z,99.99
2023-11-15T09:11:10.859Z,99.99
2023-11-15T09:12:10.976Z,99.99
2023-11-15T09:13:11.034Z,99.99
2023-11-15T09:14:11.104Z,99.99
2023-11-15T09:15:11.167Z,99.99
2023-11-15T09:16:12.341Z,99.99
2023-11-15T09:17:11.327Z,99.99
2023-11-15T09:18:11.508Z,99.99
2023-11-15T09:19:11.555Z,99.99
2023-11-15T09:20:11.617Z,99.99
2023-11-15T09:21:11.711Z,99.99
2023-11-15T09:22:11.749Z,99.99
2023-11-15T09:23:18.724Z,99.99
2023-11-15T09:24:11.965Z,99.99
2023-11-15T09:25:11.992Z,99.99
2023-11-15T09:26:12.084Z,99.99
2023-11-15T09:27:14.185Z,99.99
2023-11-15T09:28:12.233Z,99.99
2023-11-15T10:56:33.223Z,99.99
2023-11-15T10:57:34.322Z,99.99
2023-11-15T10:58:34.384Z,99.99
2023-11-15T10:59:34.497Z,99.99
2023-11-15T11:00:34.554Z,99.99
2023-11-15T11:01:34.697Z,99.99
2023-11-15T11:02:34.840Z,99.99
2023-11-15T11:03:34.924Z,99.99
2023-11-15T11:04:35.026Z,99.99
2023-11-15T11:05:35.028Z,99.99
2023-11-15T11:06:35.107Z,99.99
2023-11-15T11:07:35.162Z,99.99
2023-11-15T11:08:35.269Z,99.99
2023-11-15T11:09:35.331Z,99.99
2023-11-15T11:10:35.382Z,99.99
2023-11-15T11:11:35.565Z,99.99
2023-11-15T11:12:35.564Z,99.99
2023-11-15T11:13:35.669Z,99.99
2023-11-15T11:14:35.745Z,99.99
2023-11-15T11:15:35.861Z,99.99
2023-11-15T11:16:36.334Z,99.99
2023-11-15T11:17:37.049Z,99.99
2023-11-15T11:18:36.071Z,99.99
2023-11-15T11:19:36.128Z,99.99
2023-11-15T11:20:36.248Z,99.99
2023-11-15T11:21:36.283Z,99.99
2023-11-15T11:22:36.404Z,99.99
2023-11-15T11:23:36.845Z,99.99
2023-11-15T11:24:36.493Z,99.99
2023-11-15T11:25:36.585Z,99.99
2023-11-15T11:26:36.844Z,99.99
2023-11-15T11:27:36.756Z,99.99
2023-11-15T11:28:36.827Z,99.99
2023-11-15T11:29:36.969Z,99.99
2023-11-15T11:30:36.999Z,99.99
2023-11-15T11:31:37.110Z,99.99
2023-11-15T11:32:37.337Z,99.99
2023-11-15T11:33:37.316Z,99.99
2023-11-15T11:34:37.309Z,99.99
2023-11-15T11:35:37.435Z,99.99
2023-11-15T11:36:37.461Z,99.99
2023-11-15T11:37:37.561Z,99.99
2023-11-15T11:38:37.704Z,99.99
2023-11-15T11:39:37.719Z,99.99
2023-11-15T11:40:37.803Z,99.99
2023-11-15T11:41:37.914Z,99.99
2023-11-15T11:42:37.945Z,99.99
2023-11-15T11:43:38.071Z,99.99
2023-11-15T11:44:38.122Z,99.99
2023-11-15T11:45:38.204Z,99.99
2023-11-15T11:46:38.289Z,99.99
2023-11-15T11:47:38.454Z,99.82
2023-11-15T11:48:38.514Z,99.68
2023-11-15T11:49:38.508Z,99.68
2023-11-15T11:50:38.616Z,98.96
2023-11-15T11:51:38.639Z,98.81
2023-11-15T11:52:38.701Z,98.71
2023-11-15T11:53:38.839Z,98.91
2023-11-15T11:54:38.924Z,99.32
2023-11-15T11:55:39.008Z,99.48
2023-11-15T11:56:39.108Z,98.86
2023-11-15T11:57:39.157Z,98.52
2023-11-15T11:58:39.319Z,97.49
2023-11-15T11:59:39.316Z,98.00
2023-11-15T12:00:39.429Z,98.00
2023-11-15T12:01:39.500Z,97.55
2023-11-15T12:02:39.604Z,97.55
2023-11-15T12:03:39.827Z,95.81
2023-11-15T12:04:39.790Z,95.65
2023-11-15T12:05:42.204Z,97.65
2023-11-15T12:06:39.869Z,96.17
2023-11-15T12:07:39.976Z,95.86
2023-11-15T12:08:40.197Z,97.75
2023-11-15T12:09:40.125Z,97.86
2023-11-15T12:10:40.227Z,96.68
2023-11-15T12:11:40.333Z,96.31
2023-11-15T12:12:40.360Z,98.36
2023-11-15T12:13:40.449Z,97.33
2023-11-15T12:14:40.576Z,97.64
2023-11-15T12:15:40.646Z,98.71
2023-11-15T12:16:40.777Z,96.46
2023-11-15T12:17:41.033Z,97.49
2023-11-15T12:18:40.903Z,98.91
2023-11-15T12:19:40.993Z,98.20
2023-11-15T12:20:41.723Z,97.17
2023-11-15T12:21:41.107Z,96.26
2023-11-15T12:22:41.192Z,97.69
2023-11-15T12:23:41.296Z,97.49
2023-11-15T12:24:41.349Z,95.44
2023-11-15T12:25:41.436Z,96.87
2023-11-15T12:26:41.526Z,97.95
2023-11-15T12:27:41.565Z,97.24
2023-11-15T12:28:41.651Z,96.31
2023-11-15T12:29:41.808Z,95.80
2023-11-15T12:30:41.868Z,95.39
2023-11-15T12:31:41.897Z,94.27
2023-11-15T12:32:42.086Z,95.29
2023-11-15T12:33:42.080Z,95.60
2023-11-15T12:34:42.153Z,93.66
2023-11-15T12:35:42.240Z,95.86
2023-11-15T12:36:42.326Z,93.15
2023-11-15T12:37:42.400Z,94.02
2023-11-15T12:38:42.472Z,94.43
2023-11-15T12:39:42.553Z,92.90
2023-11-15T12:40:42.651Z,92.59
2023-11-15T12:41:42.747Z,93.21
2023-11-15T12:42:42.773Z,94.53
2023-11-15T12:43:42.876Z,93.92
2023-11-15T12:44:42.987Z,93.05
2023-11-15T12:45:43.040Z,93.45
2023-11-15T12:46:43.894Z,94.48
2023-11-15T12:47:43.278Z,93.76
2023-11-15T12:48:43.314Z,94.07
2023-11-15T12:49:43.375Z,94.89
2023-11-15T12:50:43.449Z,94.48
2023-11-15T12:51:43.567Z,93.66
2023-11-15T12:52:47.897Z,92.43
2023-11-15T12:53:43.730Z,92.54
2023-11-15T12:54:43.749Z,93.55
2023-11-15T12:55:43.826Z,91.82
2023-11-15T12:56:43.962Z,92.94
2023-11-15T12:57:43.981Z,93.25
2023-11-15T12:58:44.138Z,93.55
2023-11-15T12:59:44.255Z,92.54
2023-11-15T13:00:44.312Z,94.98
2023-11-15T13:01:44.425Z,93.25
2023-11-15T13:02:44.571Z,93.15
2023-11-15T13:03:44.642Z,92.74
2023-11-15T13:04:44.599Z,92.43
2023-11-15T13:05:44.700Z,93.15
2023-11-15T13:06:44.769Z,92.74
2023-11-15T13:07:44.874Z,92.64
2023-11-15T13:08:45.016Z,92.64
2023-11-15T13:09:45.007Z,92.74
2023-11-15T13:10:45.067Z,92.78
2023-11-15T13:11:45.190Z,93.09
2023-11-15T13:12:45.210Z,93.29
2023-11-15T13:13:45.283Z,92.88
2023-11-15T13:14:45.416Z,94.07
2023-11-15T13:15:45.471Z,94.07
2023-11-15T13:16:45.666Z,94.42
2023-11-15T13:17:45.722Z,94.62
2023-11-15T13:18:45.749Z,93.40
2023-11-15T13:19:45.761Z,94.42
2023-11-15T13:20:45.857Z,94.62
2023-11-15T13:21:45.950Z,93.70
2023-11-15T13:22:46.024Z,93.80
2023-11-15T13:23:46.198Z,93.80
2023-11-15T13:24:46.254Z,95.23
2023-11-15T13:25:46.296Z,95.03
2023-11-15T13:26:46.397Z,95.03
2023-11-15T13:27:46.414Z,94.11
2023-11-15T13:28:46.506Z,94.32
2023-11-15T13:29:46.603Z,94.46
2023-11-15T13:30:46.672Z,95.28
2023-11-15T13:31:46.734Z,96.61
2023-11-15T13:32:46.948Z,95.48
2023-11-15T13:33:47.067Z,96.30
2023-11-15T13:34:47.011Z,96.30
2023-11-15T13:35:47.147Z,96.30
2023-11-15T13:36:47.134Z,96.30
2023-11-15T13:37:47.223Z,94.87
2023-11-15T13:38:47.438Z,95.89
2023-11-15T13:39:47.346Z,96.71
2023-11-15T13:40:47.431Z,97.38
2023-11-15T13:41:47.603Z,94.52
2023-11-15T13:42:49.712Z,93.80
2023-11-15T13:43:47.666Z,93.70
2023-11-15T13:44:47.766Z,93.55
2023-11-15T13:45:47.826Z,92.23
2023-11-15T13:46:47.938Z,92.43
2023-11-15T13:47:48.073Z,91.31
2023-11-15T13:48:48.120Z,91.16
2023-11-15T13:49:48.137Z,91.43
2023-11-15T13:50:48.276Z,90.10
2023-11-15T13:51:48.310Z,90.26
2023-11-15T13:52:48.395Z,90.26
2023-11-15T13:53:48.507Z,90.47
2023-11-15T13:54:48.530Z,89.34
2023-11-15T13:55:48.642Z,89.75
2023-11-15T13:56:48.734Z,89.79
2023-11-15T13:57:48.774Z,90.51
2023-11-15T13:58:48.839Z,89.90
2023-11-15T13:59:48.952Z,90.71
2023-11-15T14:00:48.982Z,91.12
2023-11-15T14:01:49.048Z,90.20
2023-11-15T14:02:49.249Z,88.98
2023-11-15T14:03:49.310Z,88.88
2023-11-15T14:04:49.316Z,88.51
2023-11-15T14:05:49.427Z,89.43
2023-11-15T14:06:49.490Z,88.71
2023-11-15T14:07:49.569Z,88.71
2023-11-15T14:08:56.099Z,88.51
2023-11-15T14:09:49.749Z,89.12
2023-11-15T14:10:49.809Z,89.88
2023-11-15T14:11:49.896Z,91.11
2023-11-15T14:12:49.968Z,91.61
2023-11-15T14:13:50.111Z,92.13
2023-11-15T14:14:50.105Z,91.86
2023-11-15T14:15:50.176Z,92.37
2023-11-15T14:16:50.233Z,94.42
2023-11-15T14:17:50.449Z,92.17
2023-11-15T14:18:50.856Z,92.37
2023-11-15T14:19:50.492Z,92.27
2023-11-15T14:20:50.575Z,91.96
2023-11-15T14:21:50.654Z,92.07
2023-11-15T14:22:50.740Z,91.56
2023-11-15T14:23:50.849Z,92.27
2023-11-15T14:24:50.889Z,92.78
2023-11-15T14:25:50.961Z,92.99
2023-11-15T14:26:51.080Z,91.86
2023-11-15T14:27:55.286Z,94.01
2023-11-15T14:28:51.220Z,93.09
2023-11-15T14:29:51.280Z,92.68
2023-11-15T14:30:51.346Z,92.78
2023-11-15T14:31:51.447Z,92.78
2023-11-15T14:32:51.717Z,94.82
2023-11-15T14:33:51.606Z,92.72
2023-11-15T14:34:51.711Z,93.65
2023-11-15T14:35:51.787Z,93.03
2023-11-15T14:36:51.811Z,94.56
2023-11-15T14:37:51.928Z,94.20
2023-11-15T14:38:53.976Z,95.84
2023-11-15T14:39:52.087Z,95.22
2023-11-15T14:40:52.178Z,94.51
2023-11-15T14:41:52.264Z,95.53
2023-11-15T14:42:52.309Z,95.43
2023-11-15T14:43:52.404Z,96.91
2023-11-15T14:44:53.006Z,95.88
2023-11-15T14:45:52.565Z,96.59
2023-11-15T14:46:52.666Z,96.80
2023-11-15T14:47:52.869Z,97.00
2023-11-15T14:48:52.913Z,97.31
2023-11-15T14:49:52.937Z,95.98
2023-11-15T14:50:52.989Z,96.49
2023-11-15T14:51:53.040Z,95.88
2023-11-15T14:52:53.111Z,94.96
